createdAt,value
2022-07-25T00:04:15.467Z,16.50
2022-07-25T00:09:19.693Z,16.45
2022-07-25T00:14:22.412Z,16.37
2022-07-25T00:19:25.139Z,16.29
2022-07-25T00:24:27.912Z,16.18
2022-07-25T00:29:30.799Z,16.13
2022-07-25T00:34:33.622Z,16.15
2022-07-25T00:39:36.664Z,16.16
2022-07-25T00:44:39.783Z,16.09
2022-07-25T00:49:42.590Z,16.03
2022-07-25T00:54:45.331Z,16.02
2022-07-25T00:59:48.118Z,15.97
2022-07-25T01:04:50.886Z,15.86
2022-07-25T01:09:53.629Z,15.72
2022-07-25T01:14:57.795Z,15.64
2022-07-25T01:20:00.647Z,15.65
2022-07-25T01:25:03.661Z,15.64
2022-07-25T01:30:08.425Z,15.61
2022-07-25T01:35:11.866Z,15.49
2022-07-25T01:40:14.973Z,15.40
2022-07-25T01:45:17.746Z,15.36
2022-07-25T01:50:20.537Z,15.34
2022-07-25T01:55:23.446Z,15.26
2022-07-25T02:00:28.344Z,15.20
2022-07-25T02:05:31.153Z,15.21
2022-07-25T02:10:33.884Z,15.15
2022-07-25T02:15:36.999Z,15.05
2022-07-25T02:20:39.774Z,15.05
2022-07-25T02:25:42.587Z,15.01
2022-07-25T02:30:45.384Z,14.98
2022-07-25T02:35:48.364Z,14.94
2022-07-25T02:40:52.147Z,14.88
2022-07-25T02:45:54.939Z,14.87
2022-07-25T02:50:57.792Z,14.83
2022-07-25T02:56:00.557Z,14.88
2022-07-25T03:01:03.417Z,14.80
2022-07-25T03:06:06.415Z,14.76
2022-07-25T03:11:09.335Z,14.83
2022-07-25T03:16:12.066Z,14.87
2022-07-25T03:21:14.795Z,14.85
2022-07-25T03:26:17.567Z,14.79
2022-07-25T03:31:20.395Z,14.84
2022-07-25T03:36:23.206Z,14.90
2022-07-25T03:41:27.771Z,14.96
2022-07-25T03:46:31.221Z,15.04
2022-07-25T03:51:34.138Z,15.13
2022-07-25T03:56:45.690Z,15.25
2022-07-25T04:09:33.804Z,15.58
2022-07-25T04:14:37.722Z,15.64
2022-07-25T04:19:40.587Z,15.76
2022-07-25T04:24:43.322Z,15.89
2022-07-25T04:29:46.024Z,16.06
2022-07-25T04:34:48.778Z,16.19
2022-07-25T04:39:51.537Z,16.30
2022-07-25T04:44:54.477Z,16.44
2022-07-25T04:49:57.222Z,16.57
2022-07-25T04:54:59.966Z,16.70
2022-07-25T05:00:08.259Z,16.82
2022-07-25T05:05:21.552Z,16.96
2022-07-25T05:10:26.451Z,17.12
2022-07-25T05:15:29.265Z,17.28
2022-07-25T05:20:32.046Z,17.39
2022-07-25T05:25:34.994Z,17.51
2022-07-25T05:30:39.985Z,17.65
2022-07-25T05:35:42.984Z,17.78
2022-07-25T05:40:46.039Z,17.93
2022-07-25T05:45:49.050Z,18.06
2022-07-25T05:50:51.829Z,18.16
2022-07-25T05:55:54.596Z,18.26
2022-07-25T06:00:58.722Z,18.36
2022-07-25T06:06:01.530Z,18.52
2022-07-25T06:11:06.091Z,18.68
2022-07-25T06:16:11.280Z,18.81
2022-07-25T06:21:14.285Z,18.95
2022-07-25T06:26:17.125Z,19.08
2022-07-25T06:31:20.038Z,19.17
2022-07-25T06:36:22.879Z,19.32
2022-07-25T06:41:37.638Z,19.45
2022-07-25T06:46:40.625Z,19.57
2022-07-25T06:51:43.728Z,19.66
2022-07-25T06:56:46.460Z,19.81
2022-07-25T07:01:51.629Z,19.95
2022-07-25T07:06:55.094Z,20.11
2022-07-25T07:11:57.881Z,20.23
2022-07-25T07:17:00.656Z,20.33
2022-07-25T07:22:03.379Z,20.42
2022-07-25T07:27:06.805Z,20.54
2022-07-25T07:32:09.621Z,20.66
2022-07-25T07:37:12.367Z,20.80
2022-07-25T07:42:15.078Z,20.87
2022-07-25T07:47:17.921Z,20.98
2022-07-25T07:52:20.626Z,21.05
2022-07-25T07:57:23.581Z,21.18
2022-07-25T08:02:26.367Z,21.36
2022-07-25T08:07:29.134Z,21.50
2022-07-25T08:12:31.889Z,21.69
2022-07-25T08:17:34.687Z,21.90
2022-07-25T08:22:42.801Z,22.05
2022-07-25T08:27:46.117Z,22.10
2022-07-25T08:32:54.678Z,22.10
2022-07-25T08:37:57.918Z,22.23
2022-07-25T08:43:01.247Z,22.40
2022-07-25T08:48:04.491Z,22.53
2022-07-25T08:58:30.145Z,22.80
2022-07-25T09:03:32.830Z,22.96
2022-07-25T09:08:35.546Z,23.19
2022-07-25T09:13:40.637Z,23.39
2022-07-25T09:18:45.472Z,23.50
2022-07-25T09:23:48.239Z,23.59
2022-07-25T09:28:53.633Z,23.59
2022-07-25T09:34:10.041Z,23.86
2022-07-25T09:39:13.043Z,24.16
2022-07-25T09:44:23.275Z,24.40
2022-07-25T09:49:26.925Z,24.63
2022-07-25T09:54:30.593Z,24.76
2022-07-25T09:59:34.725Z,25.06
2022-07-25T10:05:20.916Z,25.77
2022-07-25T10:10:36.528Z,26.58
2022-07-25T10:15:51.119Z,27.24
2022-07-25T10:21:25.645Z,28.14
2022-07-25T10:26:30.862Z,29.08
2022-07-25T10:31:33.631Z,29.97
2022-07-25T10:36:43.601Z,30.43
2022-07-25T10:42:00.368Z,31.16
2022-07-25T10:47:06.822Z,32.31
2022-07-25T10:52:15.900Z,33.19
2022-07-25T10:57:20.085Z,34.02
2022-07-25T11:02:24.089Z,34.57
2022-07-25T11:07:28.862Z,35.34
2022-07-25T11:12:31.868Z,35.80
2022-07-25T11:17:34.909Z,36.30
2022-07-25T11:22:37.622Z,36.67
2022-07-25T11:27:40.484Z,37.36
2022-07-25T11:32:44.728Z,38.08
2022-07-25T11:37:50.105Z,38.52
2022-07-25T11:42:55.711Z,38.84
2022-07-25T11:48:14.299Z,39.88
2022-07-25T11:53:18.577Z,40.25
2022-07-25T11:58:23.427Z,40.18
2022-07-25T12:03:26.367Z,39.45
2022-07-25T12:08:31.306Z,39.72
2022-07-25T12:13:34.411Z,40.33
2022-07-25T12:18:38.600Z,40.87
2022-07-25T12:23:42.583Z,42.03
2022-07-25T12:28:45.321Z,42.44
2022-07-25T12:33:49.450Z,42.79
2022-07-25T12:38:52.181Z,41.89
2022-07-25T12:43:57.825Z,42.46
2022-07-25T12:49:00.621Z,43.37
2022-07-25T12:54:03.926Z,44.25
2022-07-25T12:59:07.403Z,44.48
2022-07-25T13:04:10.527Z,44.61
2022-07-25T13:09:13.407Z,44.25
2022-07-25T13:14:16.223Z,43.92
2022-07-25T13:19:19.013Z,45.40
2022-07-25T13:24:21.729Z,45.75
2022-07-25T13:29:24.430Z,46.95
2022-07-25T13:34:27.711Z,47.07
2022-07-25T13:39:30.920Z,47.37
2022-07-25T13:44:33.673Z,47.38
2022-07-25T13:49:37.125Z,46.94
2022-07-25T13:54:39.859Z,47.24
2022-07-25T13:59:42.620Z,47.15
2022-07-25T14:04:46.385Z,46.68
2022-07-25T14:09:49.138Z,46.85
2022-07-25T14:14:51.845Z,47.36
2022-07-25T14:19:54.573Z,47.51
2022-07-25T14:24:57.438Z,47.64
2022-07-25T14:30:00.168Z,45.65
2022-07-25T14:35:02.990Z,42.76
2022-07-25T14:40:07.331Z,41.47
2022-07-25T14:45:10.966Z,39.85
2022-07-25T14:50:13.690Z,39.23
2022-07-25T14:55:16.681Z,38.08
2022-07-25T15:00:19.562Z,36.62
2022-07-25T15:05:22.924Z,35.93
2022-07-25T15:10:25.985Z,34.99
2022-07-25T15:15:28.799Z,34.03
2022-07-25T15:20:31.550Z,33.50
2022-07-25T15:26:00.702Z,33.00
2022-07-25T15:30:57.021Z,32.69
2022-07-25T15:35:59.799Z,32.33
2022-07-25T15:41:02.511Z,32.24
2022-07-25T15:46:05.568Z,32.06
2022-07-25T15:51:08.388Z,31.77
2022-07-25T15:56:16.101Z,31.36
2022-07-25T16:01:19.169Z,30.95
2022-07-25T16:06:22.551Z,30.83
2022-07-25T16:11:25.366Z,30.60
2022-07-25T16:16:28.164Z,30.36
2022-07-25T16:21:31.027Z,30.08
2022-07-25T16:26:34.049Z,29.83
2022-07-25T16:31:36.886Z,29.55
2022-07-25T16:36:39.674Z,29.31
2022-07-25T16:41:42.481Z,29.01
2022-07-25T16:46:45.599Z,28.70
2022-07-25T16:51:50.160Z,28.49
2022-07-25T16:56:54.930Z,28.26
2022-07-25T17:02:00.259Z,28.01
2022-07-25T17:07:03.304Z,27.81
2022-07-25T17:12:07.212Z,27.61
2022-07-25T17:17:10.723Z,27.40
2022-07-25T17:22:13.580Z,27.17
2022-07-25T17:27:16.599Z,26.89
2022-07-25T17:32:19.399Z,26.63
2022-07-25T17:37:22.906Z,26.42
2022-07-25T17:42:26.308Z,26.20
2022-07-25T17:47:29.269Z,26.00
2022-07-25T17:52:32.069Z,25.81
2022-07-25T17:57:34.924Z,25.63
2022-07-25T18:02:37.900Z,25.43
2022-07-25T18:07:45.173Z,25.23
2022-07-25T18:12:48.502Z,25.02
2022-07-25T18:17:52.953Z,24.83
2022-07-25T18:22:55.670Z,24.64
2022-07-25T18:27:58.901Z,24.41
2022-07-25T18:33:01.674Z,24.20
2022-07-25T18:38:04.540Z,24.03
2022-07-25T18:43:08.757Z,23.84
2022-07-25T18:48:11.933Z,23.60
2022-07-25T18:53:14.717Z,23.40
2022-07-25T18:58:17.593Z,23.19
2022-07-25T19:03:20.409Z,23.00
2022-07-25T19:08:24.188Z,22.73
2022-07-25T19:13:48.153Z,22.55
2022-07-25T19:18:50.083Z,22.35
2022-07-25T19:23:54.934Z,22.18
2022-07-25T19:29:00.379Z,22.05
2022-07-25T19:34:05.522Z,21.95
2022-07-25T19:39:08.984Z,21.89
2022-07-25T19:44:11.850Z,21.85
2022-07-25T19:49:14.655Z,21.78
2022-07-25T19:54:17.461Z,21.71
2022-07-25T19:59:20.523Z,21.64
2022-07-25T20:04:24.438Z,21.57
2022-07-25T20:09:27.229Z,21.50
2022-07-25T20:14:32.046Z,21.42
2022-07-25T20:19:34.827Z,21.36
2022-07-25T20:24:38.032Z,21.27
2022-07-25T20:29:40.859Z,21.18
2022-07-25T20:34:43.612Z,21.11
2022-07-25T20:39:46.493Z,21.06
2022-07-25T20:44:51.137Z,20.98
2022-07-25T20:49:53.883Z,20.91
2022-07-25T20:54:56.620Z,20.86
2022-07-25T20:59:59.458Z,20.82
2022-07-25T21:05:02.220Z,20.76
2022-07-25T21:10:05.392Z,20.72
2022-07-25T21:15:08.649Z,20.63
2022-07-25T21:20:14.327Z,20.54
2022-07-25T21:25:17.054Z,20.45
2022-07-25T21:30:19.762Z,20.36
2022-07-25T21:35:22.710Z,20.24
2022-07-25T21:40:26.012Z,20.19
2022-07-25T21:45:28.846Z,20.12
2022-07-25T21:50:43.642Z,20.04
2022-07-25T21:55:46.816Z,19.94
2022-07-25T22:00:49.648Z,19.81
2022-07-25T22:05:52.432Z,19.68
2022-07-25T22:10:55.224Z,19.61
2022-07-25T22:15:58.289Z,19.52
2022-07-25T22:21:01.255Z,19.43
2022-07-25T22:26:04.037Z,19.30
2022-07-25T22:31:07.029Z,19.22
2022-07-25T22:36:10.395Z,19.17
2022-07-25T22:41:13.167Z,19.09
2022-07-25T22:46:16.064Z,18.96
2022-07-25T22:51:18.841Z,18.93
2022-07-25T22:56:21.992Z,18.98
2022-07-25T23:01:24.960Z,18.92
2022-07-25T23:06:27.705Z,18.85
2022-07-25T23:11:30.531Z,18.79
2022-07-25T23:16:33.349Z,18.76
2022-07-25T23:21:36.207Z,18.77
2022-07-25T23:26:40.613Z,18.75
2022-07-25T23:31:43.405Z,18.70
2022-07-25T23:36:46.224Z,18.60
2022-07-25T23:41:49.150Z,18.53
2022-07-25T23:46:56.760Z,18.45
2022-07-25T23:52:00.155Z,18.37
2022-07-25T23:57:04.584Z,18.32
